메인 페이지
METAR-TAF:

METAR-TAF

공항 :

Naval Air Station Kingsville

Kingsville, 텍사스, 미국

위도: 27-30-11N, 경도: 097-48-42W, 고도: 15m

현재 날씨관측

예보는 28분 전, 08:56시(UTC)에 발표되었습니다.
남동5kt
온도 27°C
습도 89%
기압 1013 hPa
시정: 16.1km
고도 2100ft 상공 흐림

METAR: KNQI 300856Z AUTO 14005KT 10SM OVC021 27/25 A2991 RMK AO2 SLP126 T02720250 57009 $

시각: 04:24 (09:24 UTC)

예보

예보 대상 시간: 30일 07시부터 31일 07시까지 (UTC)
남남동8kt
시정: 9000m
고도 1000ft 상공 구름 많음
박무
30일 1400시부터 (UTC)
남남동12kt
시정 10km 이상
고도 1500ft 상공 구름 보통
30일 1800시부터 (UTC)
남동18kt, 순간 최대 풍속 25kt
시정 10km 이상
고도 3500ft 상공 구름 많음
30일 2200시부터 (UTC)
동남동20kt, 순간 최대 풍속 28kt
시정 10km 이상
고도 5000ft 상공 구름 보통
고도 25000ft 상공 구름 보통
31일 0200시부터 (UTC)
남동14kt
시정: 3012m
고도 1500ft 상공 구름 많음
고도 25000ft 상공 구름 많음

TAF: KNQI 3007/3107 15008KT 9000 BR BKN010 QNH2989INS FM301400 16012KT 9999 SCT015 QNH2985INS FM301800 13018G25KT 9999 BKN035 QNH2980INS FM302200 12020G28KT 9999 SCT050 SCT250 QNH2977INS FM310200 14014KT 9999 BKN015 BKN250 QNH2979INS AUTOMATED SENSOR METWATCH 3007 TIL 3012 TX36/3020Z TN26/3012Z FN00274

4,000개 이상의 공항 관측 자료 및 예보 (METAR 및 TAF 보고).

지도상에서 검색 가능한 기상관측소가 노란 점과 빨간 점으로 표시되어 있습니다.

기상관측소 명을 보려면 표시 위로 마우스를 이동하세요.

날씨 관측과 예보를 보려면 클릭하세요.

지도 변경 : 확대하려면 엑스 표시가 있는 녹색 버튼, 축소하려면 빼기 표시가 있는 녹색 버튼, 다음 페이지의 지도를 보려면 녹색 화살표를 클릭하세요.


METAR-TAF: